sensor_id;sensor_type;location;lat;lon;timestamp;temperature;humidity
9977;DHT22;5029;47.378;11.776;2022-10-16T00:04:03;9.70;99.90
9977;DHT22;5029;47.378;11.776;2022-10-16T00:09:09;9.60;99.90
9977;DHT22;5029;47.378;11.776;2022-10-16T00:14:15;9.50;99.90
9977;DHT22;5029;47.378;11.776;2022-10-16T00:19:19;9.60;99.90
9977;DHT22;5029;47.378;11.776;2022-10-16T00:24:28;9.30;99.90
9977;DHT22;5029;47.378;11.776;2022-10-16T00:29:34;9.40;99.90
9977;DHT22;5029;47.378;11.776;2022-10-16T00:34:40;9.30;99.90
9977;DHT22;5029;47.378;11.776;2022-10-16T00:39:47;9.30;99.90
9977;DHT22;5029;47.378;11.776;2022-10-16T00:44:53;9.30;99.90
9977;DHT22;5029;47.378;11.776;2022-10-16T00:50:00;9.40;99.90
9977;DHT22;5029;47.378;11.776;2022-10-16T00:55:11;9.10;99.90
9977;DHT22;5029;47.378;11.776;2022-10-16T01:00:18;9.10;99.90
9977;DHT22;5029;47.378;11.776;2022-10-16T01:05:23;9.40;99.90
9977;DHT22;5029;47.378;11.776;2022-10-16T01:10:35;9.20;99.90
9977;DHT22;5029;47.378;11.776;2022-10-16T01:15:49;9.30;99.90
9977;DHT22;5029;47.378;11.776;2022-10-16T01:20:59;9.10;99.90
9977;DHT22;5029;47.378;11.776;2022-10-16T01:26:20;9.10;99.90
9977;DHT22;5029;47.378;11.776;2022-10-16T01:31:32;9.10;99.90
9977;DHT22;5029;47.378;11.776;2022-10-16T01:36:41;9.00;99.90
9977;DHT22;5029;47.378;11.776;2022-10-16T01:41:48;9.20;99.90
9977;DHT22;5029;47.378;11.776;2022-10-16T01:46:55;8.90;99.90
9977;DHT22;5029;47.378;11.776;2022-10-16T01:52:02;8.90;99.90
9977;DHT22;5029;47.378;11.776;2022-10-16T01:57:09;8.80;99.90
9977;DHT22;5029;47.378;11.776;2022-10-16T02:02:15;8.80;99.90
9977;DHT22;5029;47.378;11.776;2022-10-16T02:07:23;9.00;99.90
9977;DHT22;5029;47.378;11.776;2022-10-16T02:12:29;8.90;99.90
9977;DHT22;5029;47.378;11.776;2022-10-16T02:17:36;8.70;99.90
9977;DHT22;5029;47.378;11.776;2022-10-16T02:22:41;9.00;99.90
9977;DHT22;5029;47.378;11.776;2022-10-16T02:27:51;9.10;99.90
9977;DHT22;5029;47.378;11.776;2022-10-16T02:32:59;9.00;99.90
9977;DHT22;5029;47.378;11.776;2022-10-16T02:38:04;8.70;99.90
9977;DHT22;5029;47.378;11.776;2022-10-16T02:43:09;8.70;99.90
9977;DHT22;5029;47.378;11.776;2022-10-16T02:48:14;8.70;99.90
9977;DHT22;5029;47.378;11.776;2022-10-16T02:53:18;8.80;99.90
9977;DHT22;5029;47.378;11.776;2022-10-16T02:58:21;8.70;99.90
9977;DHT22;5029;47.378;11.776;2022-10-16T03:03:36;8.90;99.90
9977;DHT22;5029;47.378;11.776;2022-10-16T03:08:40;9.00;99.90
9977;DHT22;5029;47.378;11.776;2022-10-16T03:13:44;9.00;99.90
9977;DHT22;5029;47.378;11.776;2022-10-16T03:18:49;8.90;99.90
9977;DHT22;5029;47.378;11.776;2022-10-16T03:23:56;9.00;99.90
9977;DHT22;5029;47.378;11.776;2022-10-16T03:29:02;9.10;99.90
9977;DHT22;5029;47.378;11.776;2022-10-16T03:34:16;8.80;99.90
9977;DHT22;5029;47.378;11.776;2022-10-16T03:39:22;9.00;99.90
9977;DHT22;5029;47.378;11.776;2022-10-16T03:44:26;8.90;99.90
9977;DHT22;5029;47.378;11.776;2022-10-16T03:49:34;8.80;99.90
9977;DHT22;5029;47.378;11.776;2022-10-16T03:54:37;8.90;99.90
9977;DHT22;5029;47.378;11.776;2022-10-16T03:59:41;9.00;99.90
9977;DHT22;5029;47.378;11.776;2022-10-16T04:04:47;8.90;99.90
9977;DHT22;5029;47.378;11.776;2022-10-16T04:09:50;8.90;99.90
9977;DHT22;5029;47.378;11.776;2022-10-16T04:14:55;9.00;99.90
9977;DHT22;5029;47.378;11.776;2022-10-16T04:20:00;8.80;99.90
9977;DHT22;5029;47.378;11.776;2022-10-16T04:25:04;8.60;99.90
9977;DHT22;5029;47.378;11.776;2022-10-16T04:30:10;8.60;99.90
9977;DHT22;5029;47.378;11.776;2022-10-16T04:35:15;8.50;99.90
9977;DHT22;5029;47.378;11.776;2022-10-16T04:40:19;8.50;99.90
9977;DHT22;5029;47.378;11.776;2022-10-16T04:45:23;8.50;99.90
9977;DHT22;5029;47.378;11.776;2022-10-16T04:50:28;8.60;99.90
9977;DHT22;5029;47.378;11.776;2022-10-16T04:55:32;8.60;99.90
9977;DHT22;5029;47.378;11.776;2022-10-16T05:00:37;8.80;99.90
9977;DHT22;5029;47.378;11.776;2022-10-16T05:05:45;8.80;99.90
9977;DHT22;5029;47.378;11.776;2022-10-16T05:10:52;8.90;99.90
9977;DHT22;5029;47.378;11.776;2022-10-16T05:15:58;8.90;99.90
9977;DHT22;5029;47.378;11.776;2022-10-16T05:21:03;8.70;99.90
9977;DHT22;5029;47.378;11.776;2022-10-16T05:26:09;8.80;99.90
9977;DHT22;5029;47.378;11.776;2022-10-16T05:31:13;8.70;99.90
9977;DHT22;5029;47.378;11.776;2022-10-16T05:36:18;8.60;99.90
9977;DHT22;5029;47.378;11.776;2022-10-16T05:41:22;8.80;99.90
9977;DHT22;5029;47.378;11.776;2022-10-16T05:46:27;8.80;99.90
9977;DHT22;5029;47.378;11.776;2022-10-16T05:51:32;8.80;99.90
9977;DHT22;5029;47.378;11.776;2022-10-16T05:56:36;9.00;99.90
9977;DHT22;5029;47.378;11.776;2022-10-16T06:01:39;8.60;99.90
9977;DHT22;5029;47.378;11.776;2022-10-16T06:06:44;8.80;99.90
9977;DHT22;5029;47.378;11.776;2022-10-16T06:11:48;8.90;99.90
9977;DHT22;5029;47.378;11.776;2022-10-16T06:16:51;8.90;99.90
9977;DHT22;5029;47.378;11.776;2022-10-16T06:21:56;8.70;99.90
9977;DHT22;5029;47.378;11.776;2022-10-16T06:27:00;8.90;99.90
9977;DHT22;5029;47.378;11.776;2022-10-16T06:32:07;8.70;99.90
9977;DHT22;5029;47.378;11.776;2022-10-16T06:37:15;8.70;99.90
9977;DHT22;5029;47.378;11.776;2022-10-16T06:42:19;9.00;99.90
9977;DHT22;5029;47.378;11.776;2022-10-16T06:47:22;8.80;99.90
9977;DHT22;5029;47.378;11.776;2022-10-16T06:52:29;8.90;99.90
9977;DHT22;5029;47.378;11.776;2022-10-16T06:57:33;8.90;99.90
9977;DHT22;5029;47.378;11.776;2022-10-16T07:02:36;9.20;99.90
9977;DHT22;5029;47.378;11.776;2022-10-16T07:07:41;9.20;99.90
9977;DHT22;5029;47.378;11.776;2022-10-16T07:12:45;9.20;99.90
9977;DHT22;5029;47.378;11.776;2022-10-16T07:17:49;9.10;99.90
9977;DHT22;5029;47.378;11.776;2022-10-16T07:22:54;9.20;99.90
9977;DHT22;5029;47.378;11.776;2022-10-16T07:27:57;9.10;99.90
9977;DHT22;5029;47.378;11.776;2022-10-16T07:33:01;9.10;99.90
9977;DHT22;5029;47.378;11.776;2022-10-16T07:38:06;8.90;99.90
9977;DHT22;5029;47.378;11.776;2022-10-16T07:43:15;9.00;99.90
9977;DHT22;5029;47.378;11.776;2022-10-16T07:48:32;9.00;99.90
9977;DHT22;5029;47.378;11.776;2022-10-16T07:53:38;8.90;99.90
9977;DHT22;5029;47.378;11.776;2022-10-16T07:58:43;9.10;99.90
9977;DHT22;5029;47.378;11.776;2022-10-16T08:03:49;9.10;99.90
9977;DHT22;5029;47.378;11.776;2022-10-16T08:08:54;9.00;99.90
9977;DHT22;5029;47.378;11.776;2022-10-16T08:13:58;9.20;99.90
9977;DHT22;5029;47.378;11.776;2022-10-16T08:19:02;9.30;99.90
9977;DHT22;5029;47.378;11.776;2022-10-16T08:24:07;9.30;99.90
9977;DHT22;5029;47.378;11.776;2022-10-16T08:29:11;9.30;99.90
9977;DHT22;5029;47.378;11.776;2022-10-16T08:34:14;9.20;99.90
9977;DHT22;5029;47.378;11.776;2022-10-16T08:39:19;9.20;99.90
9977;DHT22;5029;47.378;11.776;2022-10-16T08:44:44;9.60;99.90
9977;DHT22;5029;47.378;11.776;2022-10-16T08:49:57;10.20;99.90
9977;DHT22;5029;47.378;11.776;2022-10-16T08:55:04;10.50;99.90
9977;DHT22;5029;47.378;11.776;2022-10-16T09:00:13;10.80;99.90
9977;DHT22;5029;47.378;11.776;2022-10-16T09:05:26;11.00;99.90
9977;DHT22;5029;47.378;11.776;2022-10-16T09:10:43;11.30;99.90
9977;DHT22;5029;47.378;11.776;2022-10-16T09:15:55;11.30;99.90
9977;DHT22;5029;47.378;11.776;2022-10-16T09:21:07;11.70;99.90
9977;DHT22;5029;47.378;11.776;2022-10-16T11:01:56;14.60;99.90
9977;DHT22;5029;47.378;11.776;2022-10-16T11:29:53;15.90;99.90
9977;DHT22;5029;47.378;11.776;2022-10-16T11:35:19;16.00;99.90
9977;DHT22;5029;47.378;11.776;2022-10-16T11:40:32;15.60;99.90
9977;DHT22;5029;47.378;11.776;2022-10-16T11:45:43;16.00;99.90
9977;DHT22;5029;47.378;11.776;2022-10-16T11:50:51;16.10;99.90
9977;DHT22;5029;47.378;11.776;2022-10-16T11:55:56;16.60;99.90
9977;DHT22;5029;47.378;11.776;2022-10-16T12:01:16;16.40;99.90
9977;DHT22;5029;47.378;11.776;2022-10-16T12:06:34;16.40;99.90
9977;DHT22;5029;47.378;11.776;2022-10-16T12:11:41;16.30;99.90
9977;DHT22;5029;47.378;11.776;2022-10-16T12:16:54;16.40;99.90
9977;DHT22;5029;47.378;11.776;2022-10-16T12:22:00;16.30;99.90
9977;DHT22;5029;47.378;11.776;2022-10-16T12:27:24;16.50;99.90
9977;DHT22;5029;47.378;11.776;2022-10-16T12:32:35;16.60;99.90
9977;DHT22;5029;47.378;11.776;2022-10-16T12:38:06;16.90;99.90
9977;DHT22;5029;47.378;11.776;2022-10-16T12:43:43;16.80;99.90
9977;DHT22;5029;47.378;11.776;2022-10-16T14:42:30;18.80;99.90
9977;DHT22;5029;47.378;11.776;2022-10-16T14:47:53;19.40;99.90
9977;DHT22;5029;47.378;11.776;2022-10-16T14:52:58;19.00;99.90
9977;DHT22;5029;47.378;11.776;2022-10-16T14:58:17;18.60;99.90
9977;DHT22;5029;47.378;11.776;2022-10-16T15:03:33;18.40;99.90
9977;DHT22;5029;47.378;11.776;2022-10-16T15:08:41;18.30;99.90
9977;DHT22;5029;47.378;11.776;2022-10-16T15:13:47;17.50;99.90
9977;DHT22;5029;47.378;11.776;2022-10-16T15:18:50;17.20;99.90
9977;DHT22;5029;47.378;11.776;2022-10-16T15:23:55;16.60;99.90
9977;DHT22;5029;47.378;11.776;2022-10-16T15:29:01;16.70;99.90
9977;DHT22;5029;47.378;11.776;2022-10-16T16:54:11;13.40;99.90
9977;DHT22;5029;47.378;11.776;2022-10-16T19:09:19;11.60;99.90
9977;DHT22;5029;47.378;11.776;2022-10-16T19:14:23;11.60;99.90
9977;DHT22;5029;47.378;11.776;2022-10-16T19:25:43;11.60;99.90
9977;DHT22;5029;47.378;11.776;2022-10-16T19:31:13;11.40;99.90
9977;DHT22;5029;47.378;11.776;2022-10-16T19:42:48;11.30;99.90
9977;DHT22;5029;47.378;11.776;2022-10-16T19:47:53;11.30;99.90
9977;DHT22;5029;47.378;11.776;2022-10-16T19:52:58;11.30;99.90
9977;DHT22;5029;47.378;11.776;2022-10-16T19:58:05;11.40;99.90
9977;DHT22;5029;47.378;11.776;2022-10-16T20:03:09;11.20;99.90
9977;DHT22;5029;47.378;11.776;2022-10-16T20:08:14;11.10;99.90
9977;DHT22;5029;47.378;11.776;2022-10-16T20:13:22;11.20;99.90
9977;DHT22;5029;47.378;11.776;2022-10-16T20:18:26;11.20;99.90
9977;DHT22;5029;47.378;11.776;2022-10-16T20:23:31;11.10;99.90
9977;DHT22;5029;47.378;11.776;2022-10-16T20:28:40;11.00;99.90
9977;DHT22;5029;47.378;11.776;2022-10-16T20:33:44;10.90;99.90
9977;DHT22;5029;47.378;11.776;2022-10-16T20:38:49;10.90;99.90
9977;DHT22;5029;47.378;11.776;2022-10-16T20:43:55;10.70;99.90
9977;DHT22;5029;47.378;11.776;2022-10-16T20:49:01;10.60;99.90
9977;DHT22;5029;47.378;11.776;2022-10-16T20:54:22;10.70;99.90
9977;DHT22;5029;47.378;11.776;2022-10-16T20:59:27;10.60;99.90
9977;DHT22;5029;47.378;11.776;2022-10-16T21:04:31;10.40;99.90
9977;DHT22;5029;47.378;11.776;2022-10-16T21:09:35;10.50;99.90
9977;DHT22;5029;47.378;11.776;2022-10-16T21:14:40;10.50;99.90
9977;DHT22;5029;47.378;11.776;2022-10-16T21:20:08;10.40;99.90
9977;DHT22;5029;47.378;11.776;2022-10-16T21:25:15;10.40;99.90
9977;DHT22;5029;47.378;11.776;2022-10-16T21:30:21;10.40;99.90
9977;DHT22;5029;47.378;11.776;2022-10-16T21:35:25;10.10;99.90
9977;DHT22;5029;47.378;11.776;2022-10-16T21:40:29;9.90;99.90
9977;DHT22;5029;47.378;11.776;2022-10-16T21:45:34;9.70;99.90
9977;DHT22;5029;47.378;11.776;2022-10-16T21:50:38;9.80;99.90
9977;DHT22;5029;47.378;11.776;2022-10-16T21:55:42;9.70;99.90
9977;DHT22;5029;47.378;11.776;2022-10-16T22:00:48;10.00;99.90
9977;DHT22;5029;47.378;11.776;2022-10-16T22:05:54;9.70;99.90
9977;DHT22;5029;47.378;11.776;2022-10-16T22:11:03;9.80;99.90
9977;DHT22;5029;47.378;11.776;2022-10-16T22:16:11;9.70;99.90
9977;DHT22;5029;47.378;11.776;2022-10-16T22:21:15;9.80;99.90
9977;DHT22;5029;47.378;11.776;2022-10-16T22:26:19;9.60;99.90
9977;DHT22;5029;47.378;11.776;2022-10-16T22:37:26;9.50;99.90
9977;DHT22;5029;47.378;11.776;2022-10-16T22:42:30;9.50;99.90
9977;DHT22;5029;47.378;11.776;2022-10-16T22:47:34;9.20;99.90
9977;DHT22;5029;47.378;11.776;2022-10-16T22:52:39;9.30;99.90
9977;DHT22;5029;47.378;11.776;2022-10-16T22:57:43;9.50;99.90
9977;DHT22;5029;47.378;11.776;2022-10-16T23:02:47;9.30;99.90
9977;DHT22;5029;47.378;11.776;2022-10-16T23:07:52;9.20;99.90
9977;DHT22;5029;47.378;11.776;2022-10-16T23:12:56;9.30;99.90
9977;DHT22;5029;47.378;11.776;2022-10-16T23:18:00;9.30;99.90
9977;DHT22;5029;47.378;11.776;2022-10-16T23:23:05;9.40;99.90
9977;DHT22;5029;47.378;11.776;2022-10-16T23:28:10;9.30;99.90
9977;DHT22;5029;47.378;11.776;2022-10-16T23:33:13;9.00;99.90
9977;DHT22;5029;47.378;11.776;2022-10-16T23:38:19;9.20;99.90
9977;DHT22;5029;47.378;11.776;2022-10-16T23:43:22;9.10;99.90
9977;DHT22;5029;47.378;11.776;2022-10-16T23:48:27;9.00;99.90
9977;DHT22;5029;47.378;11.776;2022-10-16T23:53:32;9.00;99.90
9977;DHT22;5029;47.378;11.776;2022-10-16T23:58:36;9.00;99.90
